Time;durP1;ratioP1;P1;durP2;ratioP2;P2;SDS_P1;SDS_P2;PMS_P1;PMS_P2;Temp;Humidity;BMP_temperature;BMP_pressure;BME280_temperature;BME280_humidity;BME280_pressure;Samples;Min_cycle;Max_cycle;Signal;HPM_P1;HPM_P2
2022/03/09 00:00:27;;;;;;;32.67;17.83;;;;;;;;;;5053518;28;20032;-78
2022/03/09 00:02:53;;;;;;;29.75;19.17;;;;;;;;;;5053751;28;20090;-78
2022/03/09 00:05:19;;;;;;;31.13;19.92;;;;;;;;;;5053514;28;20037;-76
2022/03/09 00:07:46;;;;;;;30.13;19.85;;;;;;;;;;5053790;28;20029;-80
2022/03/09 00:10:12;;;;;;;32.72;20.83;;;;;;;;;;5053640;28;20047;-77
2022/03/09 00:12:38;;;;;;;34.33;21.85;;;;;;;;;;5052163;28;20472;-78
2022/03/09 00:15:04;;;;;;;32.47;20.80;;;;;;;;;;5053601;28;20096;-79
2022/03/09 00:17:31;;;;;;;33.85;21.67;;;;;;;;;;5053527;28;20460;-77
2022/03/09 00:19:57;;;;;;;33.50;19.50;;;;;;;;;;5053605;28;20040;-78
2022/03/09 00:22:23;;;;;;;35.75;21.60;;;;;;;;;;5053477;28;20036;-79
2022/03/09 00:24:49;;;;;;;32.47;21.95;;;;;;;;;;5053964;28;20032;-79
2022/03/09 00:27:15;;;;;;;34.92;21.63;;;;;;;;;;5056324;28;20036;-77
2022/03/09 00:29:41;;;;;;;34.33;20.55;;;;;;;;;;5053237;28;20033;-78
2022/03/09 00:32:08;;;;;;;32.50;20.55;;;;;;;;;;5053371;28;20063;-78
2022/03/09 00:34:34;;;;;;;30.25;19.85;;;;;;;;;;5053035;28;20032;-78
2022/03/09 00:37:02;;;;;;;35.15;20.73;;;;;;;;;;5053289;28;20025;-81
2022/03/09 00:39:28;;;;;;;30.17;20.13;;;;;;;;;;5052958;28;20033;-79
2022/03/09 00:41:54;;;;;;;37.55;22.40;;;;;;;;;;5053059;28;20037;-80
2022/03/09 00:44:20;;;;;;;30.80;20.00;;;;;;;;;;5053296;28;20032;-81
2022/03/09 00:46:46;;;;;;;29.42;18.92;;;;;;;;;;5052833;28;20029;-81
2022/03/09 00:49:12;;;;;;;33.42;19.98;;;;;;;;;;5053244;28;20032;-78
2022/03/09 00:51:38;;;;;;;36.33;22.70;;;;;;;;;;5051716;28;20056;-78
2022/03/09 00:54:05;;;;;;;34.08;20.95;;;;;;;;;;5053247;28;20364;-80
2022/03/09 00:56:31;;;;;;;31.38;20.17;;;;;;;;;;5053012;28;20106;-79
2022/03/09 00:58:57;;;;;;;33.25;19.80;;;;;;;;;;5051590;28;20487;-78
2022/03/09 01:01:27;;;;;;;34.08;20.63;;;;;;;;;;5052730;28;20090;-78
2022/03/09 01:03:53;;;;;;;34.70;21.63;;;;;;;;;;5052691;28;20032;-78
2022/03/09 01:06:19;;;;;;;34.25;22.60;;;;;;;;;;5051560;28;20033;-79
2022/03/09 01:08:45;;;;;;;30.52;18.60;;;;;;;;;;5052698;28;20033;-79
2022/03/09 01:11:12;;;;;;;26.60;16.40;;;;;;;;;;5052183;28;20033;-79
2022/03/09 01:13:38;;;;;;;32.03;20.60;;;;;;;;;;5050893;28;20036;-80
2022/03/09 01:16:06;;;;;;;31.73;21.40;;;;;;;;;;5051465;28;20384;-79
2022/03/09 01:18:33;;;;;;;28.60;17.42;;;;;;;;;;5051047;28;20033;-78
2022/03/09 01:21:00;;;;;;;35.08;23.27;;;;;;;;;;5052449;28;20035;-78
2022/03/09 01:23:26;;;;;;;34.08;21.10;;;;;;;;;;5051474;28;20450;-77
2022/03/09 01:25:53;;;;;;;31.27;20.08;;;;;;;;;;5052214;28;20067;-78
2022/03/09 01:28:19;;;;;;;28.55;17.95;;;;;;;;;;5052383;28;20475;-78
2022/03/09 01:30:45;;;;;;;32.03;19.75;;;;;;;;;;5052205;28;20544;-77
2022/03/09 01:33:11;;;;;;;24.40;16.98;;;;;;;;;;5052638;28;20071;-77
2022/03/09 01:35:37;;;;;;;29.85;19.13;;;;;;;;;;5052271;28;20476;-78
2022/03/09 01:38:03;;;;;;;31.00;20.48;;;;;;;;;;5054657;28;20536;-78
2022/03/09 01:40:29;;;;;;;29.10;19.70;;;;;;;;;;5052234;28;20111;-79
2022/03/09 01:42:55;;;;;;;30.35;18.75;;;;;;;;;;5052002;28;20036;-79
2022/03/09 01:45:22;;;;;;;25.75;16.55;;;;;;;;;;5051001;28;20111;-79
2022/03/09 01:47:48;;;;;;;31.27;20.05;;;;;;;;;;5051858;28;20087;-78
2022/03/09 01:50:15;;;;;;;34.30;22.83;;;;;;;;;;5052235;28;20484;-78
2022/03/09 01:52:41;;;;;;;35.92;21.67;;;;;;;;;;5050721;28;20063;-78
2022/03/09 01:55:08;;;;;;;30.65;18.85;;;;;;;;;;5052091;28;20036;-79
2022/03/09 01:57:34;;;;;;;32.92;21.02;;;;;;;;;;5052005;28;20108;-79
2022/03/09 02:00:00;;;;;;;29.25;17.63;;;;;;;;;;5051875;28;20079;-78
2022/03/09 02:02:26;;;;;;;31.27;20.42;;;;;;;;;;5052107;28;20396;-79
2022/03/09 02:04:53;;;;;;;35.35;21.33;;;;;;;;;;5051739;28;20035;-77
2022/03/09 02:09:41;;;;;;;32.95;18.50;;;;;;;;;;5052158;28;20080;-78
2022/03/09 02:10:05;;;;;;;31.23;19.85;;;;;;;;;;5051832;28;20033;-78
2022/03/09 02:12:31;;;;;;;31.80;21.10;;;;;;;;;;5052139;28;20033;-78
2022/03/09 02:14:57;;;;;;;35.70;19.92;;;;;;;;;;5051805;28;20063;-77
2022/03/09 02:17:27;;;;;;;33.97;19.30;;;;;;;;;;5052082;28;20029;-78
2022/03/09 02:19:54;;;;;;;34.67;20.80;;;;;;;;;;5051583;28;20430;-76
2022/03/09 02:22:20;;;;;;;32.65;21.10;;;;;;;;;;5051814;28;20476;-78
2022/03/09 02:24:50;;;;;;;34.95;21.27;;;;;;;;;;5055203;28;20534;-79
2022/03/09 02:27:17;;;;;;;34.90;21.05;;;;;;;;;;5056025;28;20485;-78
2022/03/09 02:29:44;;;;;;;31.98;21.23;;;;;;;;;;5055190;28;20385;-78
2022/03/09 02:32:11;;;;;;;33.85;18.92;;;;;;;;;;5054566;28;20533;-77
2022/03/09 02:34:37;;;;;;;34.03;21.05;;;;;;;;;;5055555;28;20391;-79
2022/03/09 02:37:03;;;;;;;33.90;21.63;;;;;;;;;;5055472;28;20029;-77
2022/03/09 02:39:29;;;;;;;33.47;21.70;;;;;;;;;;5055580;28;20537;-77
2022/03/09 02:41:56;;;;;;;32.63;21.80;;;;;;;;;;5055192;28;20122;-78
2022/03/09 02:44:22;;;;;;;37.88;23.00;;;;;;;;;;5054236;28;20037;-79
2022/03/09 02:46:48;;;;;;;35.38;22.33;;;;;;;;;;5055448;28;20037;-79
2022/03/09 02:49:14;;;;;;;34.03;21.70;;;;;;;;;;5055634;28;20438;-78
2022/03/09 02:51:40;;;;;;;33.60;21.83;;;;;;;;;;5054828;28;20041;-78
2022/03/09 02:54:06;;;;;;;36.38;21.75;;;;;;;;;;5055015;28;20025;-78
2022/03/09 02:56:32;;;;;;;36.33;23.00;;;;;;;;;;5053892;28;20395;-77
2022/03/09 02:58:59;;;;;;;33.33;20.38;;;;;;;;;;5054821;28;20049;-75
2022/03/09 03:01:25;;;;;;;34.00;20.23;;;;;;;;;;5055095;28;20029;-78
2022/03/09 03:03:51;;;;;;;37.22;21.35;;;;;;;;;;5054809;28;20032;-76
2022/03/09 03:06:17;;;;;;;36.35;21.30;;;;;;;;;;5054925;28;20085;-78
2022/03/09 03:08:43;;;;;;;28.30;17.60;;;;;;;;;;5053713;28;20064;-79
2022/03/09 03:11:10;;;;;;;34.95;22.75;;;;;;;;;;5054805;28;20029;-77
2022/03/09 03:13:37;;;;;;;31.30;18.27;;;;;;;;;;5054938;28;20171;-79
2022/03/09 03:16:03;;;;;;;34.50;21.90;;;;;;;;;;5054517;28;20033;-80
2022/03/09 03:18:29;;;;;;;34.30;21.58;;;;;;;;;;5054852;28;20021;-79
2022/03/09 03:20:55;;;;;;;35.65;22.70;;;;;;;;;;5054464;28;20031;-78
2022/03/09 03:23:22;;;;;;;31.88;21.63;;;;;;;;;;5054645;28;20130;-77
2022/03/09 03:25:49;;;;;;;33.30;21.10;;;;;;;;;;5054553;28;20380;-78
2022/03/09 03:28:15;;;;;;;34.53;22.10;;;;;;;;;;5054608;28;20082;-77
2022/03/09 03:30:41;;;;;;;31.75;18.33;;;;;;;;;;5054697;28;20024;-79
2022/03/09 03:33:08;;;;;;;36.35;21.65;;;;;;;;;;5054382;28;20029;-80
2022/03/09 03:35:34;;;;;;;34.55;21.17;;;;;;;;;;5054117;28;20029;-78
2022/03/09 03:38:00;;;;;;;31.27;18.38;;;;;;;;;;5052842;28;20056;-79
2022/03/09 03:40:26;;;;;;;27.30;17.48;;;;;;;;;;5054548;28;20021;-78
2022/03/09 03:42:53;;;;;;;29.45;17.75;;;;;;;;;;5054391;28;20087;-80
2022/03/09 03:45:20;;;;;;;34.08;22.27;;;;;;;;;;5052961;28;20111;-78
2022/03/09 03:47:49;;;;;;;35.10;22.70;;;;;;;;;;5053248;28;20025;-78
2022/03/09 03:50:15;;;;;;;32.20;20.50;;;;;;;;;;5053822;28;20043;-80
2022/03/09 03:52:42;;;;;;;29.83;18.83;;;;;;;;;;5053055;28;20400;-78
2022/03/09 03:55:08;;;;;;;31.92;19.02;;;;;;;;;;5054060;28;20460;-79
2022/03/09 03:57:34;;;;;;;36.00;21.88;;;;;;;;;;5056480;28;20025;-78
2022/03/09 04:00:01;;;;;;;35.85;21.80;;;;;;;;;;5064815;28;20408;-79
2022/03/09 04:02:27;;;;;;;36.80;23.67;;;;;;;;;;5053908;28;20460;-77
2022/03/09 04:04:53;;;;;;;36.08;22.77;;;;;;;;;;5053665;28;20032;-79
2022/03/09 04:07:19;;;;;;;35.33;22.50;;;;;;;;;;5053615;28;20518;-79
2022/03/09 04:09:46;;;;;;;35.08;21.92;;;;;;;;;;5053751;28;20021;-78
2022/03/09 04:12:12;;;;;;;33.17;19.40;;;;;;;;;;5053660;28;20063;-79
2022/03/09 04:14:38;;;;;;;35.92;23.15;;;;;;;;;;5053765;28;20025;-78
2022/03/09 04:17:04;;;;;;;36.67;22.17;;;;;;;;;;5053496;28;20537;-77
2022/03/09 04:19:30;;;;;;;36.05;22.50;;;;;;;;;;5053726;28;20035;-77
2022/03/09 04:21:56;;;;;;;34.42;22.48;;;;;;;;;;5053440;28;20037;-77
2022/03/09 04:24:22;;;;;;;38.83;24.15;;;;;;;;;;5053207;28;20372;-78
2022/03/09 04:26:49;;;;;;;36.55;22.92;;;;;;;;;;5053328;28;20154;-78
2022/03/09 04:29:15;;;;;;;38.80;23.83;;;;;;;;;;5053189;28;20150;-78
2022/03/09 04:31:41;;;;;;;37.30;23.27;;;;;;;;;;5053470;28;20037;-78
2022/03/09 04:34:07;;;;;;;37.05;22.35;;;;;;;;;;5053037;28;20553;-79
2022/03/09 04:36:33;;;;;;;37.97;24.33;;;;;;;;;;5053143;28;20021;-79
2022/03/09 04:38:59;;;;;;;39.47;24.83;;;;;;;;;;5053311;28;20472;-78
2022/03/09 04:41:25;;;;;;;40.97;24.65;;;;;;;;;;5052951;28;20036;-79
2022/03/09 04:43:52;;;;;;;40.25;24.13;;;;;;;;;;5053152;28;20045;-78
2022/03/09 04:46:18;;;;;;;34.35;22.23;;;;;;;;;;5051110;28;20027;-78
2022/03/09 04:48:44;;;;;;;38.50;22.92;;;;;;;;;;5053137;28;20082;-79
2022/03/09 04:51:11;;;;;;;41.97;23.88;;;;;;;;;;5052912;28;20057;-79
2022/03/09 04:53:37;;;;;;;39.22;23.42;;;;;;;;;;5052952;28;20078;-78
2022/03/09 04:56:04;;;;;;;35.72;23.98;;;;;;;;;;5052852;28;20025;-78
2022/03/09 04:58:32;;;;;;;39.65;24.10;;;;;;;;;;5052508;28;20033;-79
2022/03/09 05:00:58;;;;;;;40.10;25.73;;;;;;;;;;5052640;28;20048;-79
2022/03/09 05:03:24;;;;;;;38.38;23.58;;;;;;;;;;5052782;28;20021;-79
2022/03/09 05:05:50;;;;;;;35.63;23.35;;;;;;;;;;5053202;28;20033;-79
2022/03/09 05:08:17;;;;;;;37.05;21.73;;;;;;;;;;5053079;28;20025;-80
2022/03/09 05:10:43;;;;;;;40.40;23.85;;;;;;;;;;5052934;28;20049;-80
2022/03/09 05:13:09;;;;;;;33.30;19.70;;;;;;;;;;5051524;28;20040;-79
2022/03/09 05:15:35;;;;;;;29.33;19.15;;;;;;;;;;5052683;28;20036;-79
2022/03/09 05:18:01;;;;;;;33.70;21.63;;;;;;;;;;5052646;28;20029;-78
2022/03/09 05:20:27;;;;;;;37.95;24.70;;;;;;;;;;5052298;28;20114;-77
2022/03/09 05:22:54;;;;;;;34.08;22.05;;;;;;;;;;5052659;28;20492;-79
2022/03/09 05:25:22;;;;;;;33.72;22.58;;;;;;;;;;5052521;28;20029;-78
2022/03/09 05:27:48;;;;;;;65.15;35.22;;;;;;;;;;5051400;28;20025;-77
2022/03/09 05:30:15;;;;;;;45.80;27.08;;;;;;;;;;5052449;28;20028;-78
2022/03/09 05:32:41;;;;;;;36.90;22.02;;;;;;;;;;5052098;28;20021;-78
2022/03/09 05:35:08;;;;;;;39.08;22.77;;;;;;;;;;5053134;28;20420;-76
2022/03/09 05:37:44;;;;;;;40.53;24.40;;;;;;;;;;5053646;28;20025;-81
2022/03/09 05:40:10;;;;;;;37.83;23.85;;;;;;;;;;5052256;28;20095;-78
2022/03/09 05:42:37;;;;;;;38.83;23.73;;;;;;;;;;5052062;28;20029;-77
2022/03/09 05:45:04;;;;;;;39.85;24.95;;;;;;;;;;5052402;28;20488;-78
2022/03/09 05:47:31;;;;;;;41.25;26.77;;;;;;;;;;5052016;28;20025;-79
2022/03/09 05:49:57;;;;;;;37.78;23.67;;;;;;;;;;5052308;28;20044;-80
2022/03/09 05:52:23;;;;;;;41.13;24.17;;;;;;;;;;5052164;28;20068;-78
2022/03/09 05:54:49;;;;;;;36.42;23.25;;;;;;;;;;5052029;28;20040;-77
2022/03/09 05:57:34;;;;;;;37.38;25.10;;;;;;;;;;5053454;28;20033;-79
2022/03/09 06:00:02;;;;;;;40.80;26.50;;;;;;;;;;5056244;28;20059;-79
2022/03/09 06:02:28;;;;;;;43.28;26.25;;;;;;;;;;5057659;28;20037;-78
2022/03/09 06:04:54;;;;;;;37.38;23.30;;;;;;;;;;5056347;28;20150;-80
2022/03/09 06:07:20;;;;;;;34.55;20.02;;;;;;;;;;5054958;28;20029;-78
2022/03/09 06:09:46;;;;;;;38.75;24.55;;;;;;;;;;5056103;28;20033;-77
2022/03/09 06:12:13;;;;;;;31.40;19.92;;;;;;;;;;5054214;28;20424;-80
2022/03/09 06:14:39;;;;;;;37.42;24.23;;;;;;;;;;5056279;28;20033;-80
2022/03/09 06:17:05;;;;;;;37.35;23.45;;;;;;;;;;5056013;28;20037;-79
2022/03/09 06:19:31;;;;;;;37.95;24.42;;;;;;;;;;5056005;28;20024;-82
2022/03/09 06:21:57;;;;;;;35.38;21.88;;;;;;;;;;5055878;28;20075;-78
2022/03/09 06:24:23;;;;;;;37.50;21.65;;;;;;;;;;5055534;28;20032;-81
2022/03/09 06:26:50;;;;;;;38.38;23.83;;;;;;;;;;5056090;28;20087;-81
2022/03/09 06:29:16;;;;;;;40.63;25.42;;;;;;;;;;5055260;28;20083;-80
2022/03/09 06:31:46;;;;;;;39.60;27.83;;;;;;;;;;5048928;28;20023;-79
2022/03/09 06:34:12;;;;;;;32.90;22.95;;;;;;;;;;5053015;28;20021;-81
2022/03/09 06:36:43;;;;;;;40.72;25.92;;;;;;;;;;5053134;28;20487;-80
2022/03/09 06:39:12;;;;;;;34.78;21.02;;;;;;;;;;5053899;28;20107;-79
2022/03/09 06:41:40;;;;;;;38.83;24.73;;;;;;;;;;5052908;28;20514;-80
2022/03/09 06:44:06;;;;;;;37.03;23.50;;;;;;;;;;5043087;28;20553;-79
2022/03/09 06:46:32;;;;;;;39.80;25.08;;;;;;;;;;5040826;28;20025;-78
2022/03/09 06:49:02;;;;;;;33.30;20.55;;;;;;;;;;5047169;28;20017;-78
2022/03/09 06:51:38;;;;;;;47.47;29.52;;;;;;;;;;5054000;28;20060;-83
2022/03/09 06:54:23;;;;;;;30.40;19.48;;;;;;;;;;5052932;28;20029;-83
2022/03/09 06:56:52;;;;;;;38.08;23.20;;;;;;;;;;5053306;28;20025;-80
2022/03/09 06:59:25;;;;;;;35.67;22.88;;;;;;;;;;5052511;28;20476;-84
2022/03/09 07:01:53;;;;;;;28.50;16.85;;;;;;;;;;5050060;28;20419;-78
2022/03/09 07:04:19;;;;;;;29.40;18.20;;;;;;;;;;5053699;28;20063;-78
2022/03/09 07:06:45;;;;;;;25.48;17.30;;;;;;;;;;5054256;28;20021;-78
2022/03/09 07:09:11;;;;;;;33.47;21.38;;;;;;;;;;5051416;28;20551;-78
2022/03/09 07:11:37;;;;;;;33.80;21.05;;;;;;;;;;5053377;28;20064;-79
2022/03/09 07:14:10;;;;;;;28.85;19.90;;;;;;;;;;5046598;28;20033;-81
2022/03/09 07:16:37;;;;;;;29.67;17.77;;;;;;;;;;5045944;28;20041;-79
2022/03/09 07:19:03;;;;;;;31.38;18.48;;;;;;;;;;5050615;28;20116;-81
2022/03/09 07:21:29;;;;;;;33.15;22.27;;;;;;;;;;5052616;28;20052;-78
2022/03/09 07:23:56;;;;;;;29.48;19.08;;;;;;;;;;5044344;28;20029;-82
2022/03/09 07:26:22;;;;;;;27.88;18.52;;;;;;;;;;5033476;28;20029;-78
2022/03/09 07:28:48;;;;;;;28.90;19.17;;;;;;;;;;5047921;28;20044;-80
2022/03/09 07:31:14;;;;;;;31.80;19.80;;;;;;;;;;5052385;28;20029;-79
2022/03/09 07:33:40;;;;;;;27.08;15.48;;;;;;;;;;5050338;28;20365;-79
2022/03/09 07:36:07;;;;;;;35.03;21.83;;;;;;;;;;5053269;28;20033;-80
2022/03/09 07:38:33;;;;;;;34.10;18.77;;;;;;;;;;5052679;28;20384;-79
2022/03/09 07:40:59;;;;;;;27.65;18.15;;;;;;;;;;5051023;28;20029;-81
2022/03/09 07:43:25;;;;;;;31.33;19.75;;;;;;;;;;5052759;28;20032;-79
2022/03/09 07:45:51;;;;;;;29.63;18.05;;;;;;;;;;5052811;28;20025;-76
2022/03/09 07:48:17;;;;;;;32.00;19.95;;;;;;;;;;5052906;28;20118;-78
2022/03/09 07:50:44;;;;;;;23.70;16.00;;;;;;;;;;5051507;28;20084;-80
2022/03/09 07:53:10;;;;;;;31.15;20.02;;;;;;;;;;5052387;28;20048;-78
2022/03/09 07:55:36;;;;;;;26.73;16.70;;;;;;;;;;5053066;28;20366;-78
2022/03/09 07:58:02;;;;;;;25.35;15.70;;;;;;;;;;5052219;28;20017;-77
2022/03/09 08:00:28;;;;;;;25.20;16.20;;;;;;;;;;5052739;28;20021;-79
2022/03/09 08:02:54;;;;;;;24.17;15.80;;;;;;;;;;5052400;28;20036;-77
2022/03/09 08:05:21;;;;;;;29.38;18.35;;;;;;;;;;5052859;28;20025;-77
2022/03/09 08:07:47;;;;;;;29.45;17.55;;;;;;;;;;5052615;28;20036;-79
2022/03/09 08:10:14;;;;;;;25.63;17.27;;;;;;;;;;5051941;28;20095;-80
2022/03/09 08:12:40;;;;;;;25.50;15.95;;;;;;;;;;5052088;28;20025;-78
2022/03/09 08:15:06;;;;;;;24.23;16.38;;;;;;;;;;5056268;28;20047;-77
2022/03/09 08:17:33;;;;;;;28.85;19.95;;;;;;;;;;5053389;28;20079;-84
2022/03/09 08:19:59;;;;;;;32.42;22.10;;;;;;;;;;5051776;28;20021;-81
2022/03/09 08:22:26;;;;;;;31.13;19.48;;;;;;;;;;5051425;28;20395;-79
2022/03/09 08:24:52;;;;;;;25.40;17.00;;;;;;;;;;5052532;28;20033;-80
2022/03/09 08:27:18;;;;;;;27.80;15.98;;;;;;;;;;5050643;28;20108;-78
2022/03/09 08:29:44;;;;;;;27.17;15.55;;;;;;;;;;5052506;28;20040;-80
2022/03/09 08:32:16;;;;;;;25.25;17.27;;;;;;;;;;5051156;28;20029;-81
2022/03/09 08:34:42;;;;;;;24.83;16.42;;;;;;;;;;5052131;28;20376;-80
2022/03/09 08:37:08;;;;;;;25.50;17.73;;;;;;;;;;5052016;28;20033;-81
2022/03/09 08:39:34;;;;;;;24.05;17.42;;;;;;;;;;5052022;28;20032;-81
2022/03/09 08:42:00;;;;;;;23.52;15.40;;;;;;;;;;5052075;28;20049;-80
2022/03/09 08:44:27;;;;;;;22.73;15.82;;;;;;;;;;5051255;28;20339;-83
2022/03/09 08:46:53;;;;;;;20.80;13.65;;;;;;;;;;5051674;28;20037;-83
2022/03/09 08:49:20;;;;;;;25.65;16.23;;;;;;;;;;5051572;28;20036;-82
2022/03/09 08:51:46;;;;;;;23.80;15.73;;;;;;;;;;5051514;28;20076;-80
2022/03/09 08:54:12;;;;;;;23.67;16.42;;;;;;;;;;5050694;28;20063;-79
2022/03/09 08:56:39;;;;;;;24.23;14.18;;;;;;;;;;5047733;28;20102;-80
2022/03/09 08:59:05;;;;;;;18.30;12.05;;;;;;;;;;5051368;28;20025;-82
2022/03/09 09:01:31;;;;;;;27.27;16.83;;;;;;;;;;5051009;28;20519;-81
2022/03/09 09:03:57;;;;;;;22.10;15.13;;;;;;;;;;5051378;28;20051;-81
2022/03/09 09:06:23;;;;;;;25.17;14.90;;;;;;;;;;5050763;28;20040;-80
2022/03/09 09:08:49;;;;;;;19.33;12.57;;;;;;;;;;5051380;28;20553;-79
2022/03/09 09:11:15;;;;;;;21.35;14.38;;;;;;;;;;5051236;28;20032;-81
2022/03/09 09:13:41;;;;;;;15.88;10.88;;;;;;;;;;5051755;28;20529;-80
2022/03/09 09:16:08;;;;;;;19.85;12.38;;;;;;;;;;5050536;28;20098;-79
2022/03/09 09:18:34;;;;;;;19.35;12.60;;;;;;;;;;5050636;28;20048;-81
2022/03/09 09:21:00;;;;;;;17.67;12.77;;;;;;;;;;5050969;28;20040;-82
2022/03/09 09:23:26;;;;;;;20.15;11.82;;;;;;;;;;5051263;28;20508;-83
2022/03/09 09:25:53;;;;;;;18.23;12.68;;;;;;;;;;5050643;28;20102;-79
2022/03/09 09:28:19;;;;;;;22.60;14.55;;;;;;;;;;5050550;28;20033;-79
2022/03/09 09:30:45;;;;;;;18.05;12.75;;;;;;;;;;5050679;28;20028;-81
2022/03/09 09:33:11;;;;;;;19.13;13.00;;;;;;;;;;5050540;28;20036;-83
2022/03/09 09:35:38;;;;;;;19.00;10.40;;;;;;;;;;5050355;28;20067;-79
2022/03/09 09:38:08;;;;;;;17.83;12.00;;;;;;;;;;5050917;28;20029;-84
2022/03/09 09:40:43;;;;;;;20.20;13.57;;;;;;;;;;5050869;28;20459;-80
2022/03/09 09:43:11;;;;;;;20.25;12.68;;;;;;;;;;5050786;28;20491;-81
2022/03/09 09:45:37;;;;;;;22.13;13.77;;;;;;;;;;5051220;28;20681;-80
2022/03/09 09:48:07;;;;;;;20.15;13.45;;;;;;;;;;5050627;28;20480;-79
2022/03/09 09:50:33;;;;;;;16.95;11.38;;;;;;;;;;5048697;28;20025;-79
2022/03/09 09:53:24;;;;;;;13.63;9.10;;;;;;;;;;5050476;28;20076;-79
2022/03/09 09:55:53;;;;;;;20.08;13.73;;;;;;;;;;5050344;28;20037;-79
2022/03/09 09:58:20;;;;;;;19.80;13.43;;;;;;;;;;5051098;28;20025;-80
2022/03/09 10:00:46;;;;;;;19.63;11.70;;;;;;;;;;5049392;28;20036;-79
2022/03/09 10:03:12;;;;;;;29.23;18.15;;;;;;;;;;5050352;28;20025;-81
2022/03/09 10:05:39;;;;;;;19.15;12.98;;;;;;;;;;5050682;28;20039;-81
2022/03/09 10:08:05;;;;;;;22.73;14.27;;;;;;;;;;5050205;28;20049;-81
2022/03/09 10:10:31;;;;;;;32.15;16.00;;;;;;;;;;5050460;28;20502;-80
2022/03/09 10:13:17;;;;;;;22.98;13.50;;;;;;;;;;5049364;28;20086;-77
2022/03/09 10:15:48;;;;;;;16.20;10.10;;;;;;;;;;5050667;28;20576;-81
2022/03/09 10:18:17;;;;;;;15.55;10.30;;;;;;;;;;5048578;28;20380;-79
2022/03/09 10:20:43;;;;;;;17.48;11.48;;;;;;;;;;5049683;28;20033;-81
2022/03/09 10:23:10;;;;;;;15.05;10.35;;;;;;;;;;5050336;28;20091;-79
2022/03/09 10:25:38;;;;;;;16.90;9.32;;;;;;;;;;5050048;28;20045;-80
2022/03/09 10:28:22;;;;;;;14.52;9.05;;;;;;;;;;5050072;28;20040;-82
2022/03/09 10:30:48;;;;;;;13.35;9.93;;;;;;;;;;5049337;28;20035;-81
2022/03/09 10:33:15;;;;;;;18.67;11.48;;;;;;;;;;5047947;28;20029;-71
2022/03/09 10:35:42;;;;;;;22.17;13.23;;;;;;;;;;5047996;28;20025;-83
2022/03/09 10:38:22;;;;;;;15.02;10.15;;;;;;;;;;5048583;28;20017;-82
2022/03/09 10:40:56;;;;;;;12.85;7.30;;;;;;;;;;5049474;28;20036;-82
2022/03/09 10:43:23;;;;;;;;;;;;;;;;;;5048681;28;20029;-81
2022/03/09 10:46:08;;;;;;;13.63;7.97;;;;;;;;;;5051953;28;19970;-80
2022/03/09 10:48:33;;;;;;;;;;;;;;;;;;5034197;28;20031;-82
2022/03/09 10:51:00;;;;;;;16.60;10.52;;;;;;;;;;5033372;28;19917;-80
2022/03/09 10:53:30;;;;;;;11.13;6.18;;;;;;;;;;5035984;28;20140;-80
2022/03/09 10:56:00;;;;;;;11.30;8.45;;;;;;;;;;5053726;28;20033;-80
2022/03/09 10:58:26;;;;;;;11.00;7.00;;;;;;;;;;5050773;28;20016;-82
2022/03/09 11:00:53;;;;;;;14.85;9.80;;;;;;;;;;5053338;28;20403;-82
2022/03/09 11:03:24;;;;;;;9.77;6.22;;;;;;;;;;5053732;28;20055;-82
2022/03/09 11:05:54;;;;;;;11.55;8.38;;;;;;;;;;5051848;28;20029;-79
2022/03/09 11:08:22;;;;;;;14.30;10.18;;;;;;;;;;5053882;28;20032;-79
2022/03/09 11:10:48;;;;;;;11.23;5.75;;;;;;;;;;5053080;28;22097;-80
2022/03/09 11:13:15;;;;;;;9.70;5.85;;;;;;;;;;5053373;28;20037;-79
2022/03/09 11:15:42;;;;;;;10.45;7.85;;;;;;;;;;5053777;28;20025;-81
2022/03/09 11:18:09;;;;;;;9.68;7.18;;;;;;;;;;5051874;28;20020;-79
2022/03/09 11:20:35;;;;;;;11.27;8.38;;;;;;;;;;5053672;28;20032;-78
2022/03/09 11:23:01;;;;;;;15.00;8.45;;;;;;;;;;5052934;28;20032;-80
2022/03/09 11:25:30;;;;;;;11.90;8.75;;;;;;;;;;5053090;28;20108;-80
2022/03/09 11:27:57;;;;;;;11.73;7.93;;;;;;;;;;5053158;28;20052;-79
2022/03/09 11:30:26;;;;;;;12.30;8.82;;;;;;;;;;5053002;28;20510;-78
2022/03/09 11:32:55;;;;;;;14.30;8.38;;;;;;;;;;5052155;28;20480;-75
2022/03/09 11:35:50;;;;;;;18.80;11.35;;;;;;;;;;5052626;28;20029;-77
2022/03/09 11:38:35;;;;;;;13.63;8.38;;;;;;;;;;5041419;28;20493;-78
2022/03/09 11:41:20;;;;;;;12.27;6.75;;;;;;;;;;5051408;28;20138;-78
2022/03/09 11:43:46;;;;;;;;;;;;;;;;;;5050064;28;20107;-77
2022/03/09 11:46:12;;;;;;;9.10;5.60;;;;;;;;;;5051932;28;20023;-79
2022/03/09 11:48:53;;;;;;;6.97;4.63;;;;;;;;;;5052792;28;20028;-79
2022/03/09 11:51:23;;;;;;;6.50;4.25;;;;;;;;;;5052916;28;20057;-77
2022/03/09 11:53:51;;;;;;;13.85;8.52;;;;;;;;;;5052636;28;20060;-79
2022/03/09 11:56:37;;;;;;;10.88;6.47;;;;;;;;;;5051393;28;20029;-81
2022/03/09 11:59:22;;;;;;;11.98;7.70;;;;;;;;;;5051091;28;20057;-85
2022/03/09 12:01:57;;;;;;;100.85;46.03;;;;;;;;;;5052161;28;20488;-82
2022/03/09 12:04:42;;;;;;;36.03;18.63;;;;;;;;;;5052358;28;20060;-78
2022/03/09 12:07:13;;;;;;;12.07;8.27;;;;;;;;;;5052379;28;20036;-80
2022/03/09 12:09:54;;;;;;;27.38;15.00;;;;;;;;;;5052487;28;20025;-81
2022/03/09 12:12:20;;;;;;;13.65;9.82;;;;;;;;;;5049886;28;20033;-81
2022/03/09 12:15:05;;;;;;;14.20;8.15;;;;;;;;;;5048922;28;20051;-79
2022/03/09 12:17:38;;;;;;;15.25;9.23;;;;;;;;;;5047419;28;20070;-79
2022/03/09 12:20:23;;;;;;;10.82;7.82;;;;;;;;;;5051267;28;20377;-78
2022/03/09 12:22:55;;;;;;;11.48;7.68;;;;;;;;;;5051048;28;20546;-78
2022/03/09 12:25:43;;;;;;;14.68;9.32;;;;;;;;;;5051323;28;20028;-76
2022/03/09 12:28:25;;;;;;;13.70;8.98;;;;;;;;;;5048477;28;20120;-79
2022/03/09 12:31:15;;;;;;;15.07;10.30;;;;;;;;;;5051936;28;20036;-81
2022/03/09 12:33:43;;;;;;;14.90;10.50;;;;;;;;;;5032018;28;20032;-80
2022/03/09 12:36:09;;;;;;;14.25;9.23;;;;;;;;;;5050948;28;20111;-79
2022/03/09 12:38:35;;;;;;;15.65;8.88;;;;;;;;;;5051805;28;20037;-80
2022/03/09 12:41:02;;;;;;;13.90;9.65;;;;;;;;;;5050145;28;20124;-79
2022/03/09 12:43:41;;;;;;;22.05;15.82;;;;;;;;;;5051902;28;20037;-79
2022/03/09 12:46:07;;;;;;;17.63;11.65;;;;;;;;;;5050234;28;20025;-79
2022/03/09 12:48:39;;;;;;;19.55;13.20;;;;;;;;;;5051093;28;20081;-80
2022/03/09 12:51:05;;;;;;;13.73;9.00;;;;;;;;;;5050964;28;20460;-78
2022/03/09 12:53:32;;;;;;;15.68;11.23;;;;;;;;;;5050802;28;20056;-78
2022/03/09 12:55:58;;;;;;;11.80;7.80;;;;;;;;;;5050273;28;20033;-81
2022/03/09 12:58:25;;;;;;;11.30;7.85;;;;;;;;;;5049687;28;20395;-78
2022/03/09 13:01:04;;;;;;;16.33;11.05;;;;;;;;;;5049893;28;20020;-78
2022/03/09 13:03:30;;;;;;;14.45;10.90;;;;;;;;;;5042963;28;20455;-77
2022/03/09 13:05:56;;;;;;;13.60;8.77;;;;;;;;;;5053119;28;20045;-79
2022/03/09 13:08:32;;;;;;;12.00;7.68;;;;;;;;;;5051428;28;20024;-80
2022/03/09 13:10:59;;;;;;;18.92;11.45;;;;;;;;;;5051788;28;20037;-80
2022/03/09 13:13:29;;;;;;;13.68;9.77;;;;;;;;;;5052088;28;20122;-79
2022/03/09 13:18:40;;;;;;;;;;;;;;;;;;5051752;28;20125;-79
2022/03/09 13:21:06;;;;;;;13.57;9.60;;;;;;;;;;5051912;28;20015;-80
2022/03/09 13:23:51;;;;;;;14.07;9.52;;;;;;;;;;5052098;28;20071;-79
2022/03/09 13:26:19;;;;;;;14.80;10.40;;;;;;;;;;5051848;28;20032;-80
2022/03/09 13:28:47;;;;;;;19.20;12.75;;;;;;;;;;5052173;28;20035;-79
2022/03/09 13:31:13;;;;;;;19.73;13.48;;;;;;;;;;5051515;28;20039;-80
2022/03/09 13:33:40;;;;;;;15.48;10.75;;;;;;;;;;5048460;28;20028;-76
2022/03/09 13:36:11;;;;;;;14.23;11.27;;;;;;;;;;5049931;28;20070;-78
2022/03/09 13:38:39;;;;;;;17.52;11.00;;;;;;;;;;5036862;28;20491;-78
2022/03/09 13:41:09;;;;;;;17.02;11.23;;;;;;;;;;5031485;28;20041;-79
2022/03/09 13:43:36;;;;;;;15.68;11.02;;;;;;;;;;5037826;28;20589;-79
2022/03/09 13:46:22;;;;;;;16.88;11.25;;;;;;;;;;5052088;28;20028;-76
2022/03/09 13:48:48;;;;;;;20.17;13.68;;;;;;;;;;5047817;28;20068;-76
2022/03/09 13:51:14;;;;;;;18.65;11.27;;;;;;;;;;5050187;28;20041;-79
2022/03/09 13:53:42;;;;;;;19.77;13.40;;;;;;;;;;5050720;28;20029;-79
2022/03/09 13:56:19;;;;;;;15.68;10.98;;;;;;;;;;5053258;28;20392;-75
2022/03/09 13:58:45;;;;;;;17.85;12.25;;;;;;;;;;5051535;28;20032;-76
2022/03/09 14:01:13;;;;;;;15.07;9.73;;;;;;;;;;5051511;28;20745;-80
2022/03/09 14:03:40;;;;;;;15.48;9.18;;;;;;;;;;5050576;28;20029;-82
2022/03/09 14:06:21;;;;;;;13.00;10.80;;;;;;;;;;5051664;28;20468;-79
2022/03/09 14:08:48;;;;;;;12.32;7.80;;;;;;;;;;5050085;28;20139;-81
2022/03/09 14:11:19;;;;;;;15.57;11.15;;;;;;;;;;5050956;28;20486;-80
2022/03/09 14:14:04;;;;;;;18.63;12.82;;;;;;;;;;5050471;28;20025;-83
2022/03/09 14:16:41;;;;;;;15.35;12.10;;;;;;;;;;5050011;28;20475;-86
2022/03/09 14:19:15;;;;;;;21.42;13.48;;;;;;;;;;5053832;28;20028;-79
2022/03/09 14:21:42;;;;;;;15.88;10.80;;;;;;;;;;5052208;28;20041;-78
2022/03/09 14:24:08;;;;;;;15.18;11.30;;;;;;;;;;5054293;28;20545;-78
2022/03/09 14:26:36;;;;;;;14.98;10.82;;;;;;;;;;5052633;28;20384;-79
2022/03/09 14:29:03;;;;;;;20.98;16.63;;;;;;;;;;5053133;28;20033;-78